createdAt,value
2023-08-19T00:00:23.740Z,101411.13
2023-08-19T00:02:52.960Z,101406.97
2023-08-19T00:05:20.080Z,101419.25
2023-08-19T00:07:48.084Z,101422.78
2023-08-19T00:10:15.453Z,101418.34
2023-08-19T00:12:42.635Z,101421.72
2023-08-19T00:15:10.313Z,101427.88
2023-08-19T00:17:37.458Z,101422.84
2023-08-19T00:20:07.393Z,101419.38
2023-08-19T00:22:34.676Z,101421.38
2023-08-19T00:25:01.814Z,101420.53
2023-08-19T00:27:31.781Z,101418.03
2023-08-19T00:29:59.098Z,101405.97
2023-08-19T00:32:26.213Z,101420.50
2023-08-19T00:34:53.453Z,101420.41
2023-08-19T00:37:20.543Z,101417.78
2023-08-19T00:39:47.637Z,101420.34
2023-08-19T00:42:15.848Z,101422.19
2023-08-19T00:44:43.188Z,101427.47
2023-08-19T00:47:10.225Z,101422.28
2023-08-19T00:49:37.797Z,101430.13
2023-08-19T00:52:05.385Z,101428.44
2023-08-19T00:54:32.805Z,101421.63
2023-08-19T00:57:00.987Z,101431.34
2023-08-19T00:59:28.456Z,101443.56
2023-08-19T01:01:55.586Z,101421.09
2023-08-19T01:04:22.813Z,101415.94
2023-08-19T01:07:13.716Z,101435.97
2023-08-19T01:10:33.726Z,101434.03
2023-08-19T01:13:12.972Z,101415.81
2023-08-19T01:15:56.539Z,101431.34
2023-08-19T01:18:25.126Z,101421.03
2023-08-19T01:20:54.564Z,101440.22
2023-08-19T01:23:37.098Z,101434.22
2023-08-19T01:26:04.494Z,101439.50
2023-08-19T01:28:31.626Z,101423.22
2023-08-19T01:30:59.883Z,101437.09
2023-08-19T01:33:27.437Z,101443.03
2023-08-19T01:36:06.787Z,101437.81
2023-08-19T01:38:52.525Z,101436.13
2023-08-19T01:41:23.592Z,101426.56
2023-08-19T01:43:51.138Z,101427.22
2023-08-19T01:46:18.873Z,101429.84
2023-08-19T01:48:45.901Z,101423.88
2023-08-19T01:51:13.169Z,101412.50
2023-08-19T01:53:40.249Z,101411.56
2023-08-19T01:56:07.493Z,101405.59
2023-08-19T01:58:35.510Z,101402.31
2023-08-19T02:01:02.877Z,101419.69
2023-08-19T02:03:30.046Z,101418.94
2023-08-19T02:05:57.588Z,101413.91
2023-08-19T02:08:24.799Z,101420.84
2023-08-19T02:10:51.974Z,101415.06
2023-08-19T02:13:19.207Z,101427.22
2023-08-19T02:15:46.588Z,101408.19
2023-08-19T02:18:15.468Z,101420.91
2023-08-19T02:20:47.513Z,101417.25
2023-08-19T02:23:14.998Z,101411.91
2023-08-19T02:25:42.078Z,101391.16
2023-08-19T02:28:09.215Z,101407.59
2023-08-19T02:30:36.413Z,101398.16
2023-08-19T02:33:07.466Z,101397.22
2023-08-19T02:35:34.922Z,101381.69
2023-08-19T02:38:02.099Z,101392.03
2023-08-19T02:40:34.092Z,101382.59
2023-08-19T02:43:01.720Z,101393.75
2023-08-19T02:45:29.186Z,101398.13
2023-08-19T02:47:56.795Z,101390.59
2023-08-19T02:50:24.044Z,101399.19
2023-08-19T02:52:51.155Z,101398.53
2023-08-19T02:55:18.288Z,101406.31
2023-08-19T02:57:47.027Z,101409.78
2023-08-19T03:00:15.914Z,101407.31
2023-08-19T03:02:49.256Z,101400.41
2023-08-19T03:05:16.823Z,101391.78
2023-08-19T03:07:43.895Z,101402.91
2023-08-19T03:10:11.280Z,101409.72
2023-08-19T03:12:38.515Z,101418.34
2023-08-19T03:15:06.225Z,101415.72
2023-08-19T03:17:33.610Z,101404.50
2023-08-19T03:20:01.008Z,101409.53
2023-08-19T03:22:28.071Z,101403.38
2023-08-19T03:24:57.344Z,101395.63
2023-08-19T03:27:24.481Z,101399.03
2023-08-19T03:29:51.558Z,101392.19
2023-08-19T03:32:18.784Z,101394.78
2023-08-19T03:34:46.279Z,101382.81
2023-08-19T03:37:13.754Z,101392.31
2023-08-19T03:39:40.899Z,101398.53
2023-08-19T03:42:08.032Z,101386.50
2023-08-19T03:44:35.067Z,101400.31
2023-08-19T03:47:02.256Z,101405.47
2023-08-19T03:49:29.447Z,101396.78
2023-08-19T03:51:56.542Z,101410.63
2023-08-19T03:54:23.671Z,101402.84
2023-08-19T03:56:50.798Z,101408.97
2023-08-19T03:59:19.492Z,101418.66
2023-08-19T04:01:46.881Z,101410.16
2023-08-19T04:04:14.198Z,101430.81
2023-08-19T04:06:41.499Z,101416.91
2023-08-19T04:09:08.940Z,101420.31
2023-08-19T04:11:38.560Z,101422.13
2023-08-19T04:14:07.161Z,101421.34
2023-08-19T04:16:34.374Z,101427.41
2023-08-19T04:19:02.092Z,101419.72
2023-08-19T04:21:29.772Z,101431.13
2023-08-19T04:23:57.977Z,101424.28
2023-08-19T04:26:25.835Z,101429.47
2023-08-19T04:28:53.443Z,101445.09
2023-08-19T04:31:21.940Z,101438.19
2023-08-19T04:33:55.913Z,101443.41
2023-08-19T04:36:23.666Z,101427.75
2023-08-19T04:38:50.744Z,101440.81
2023-08-19T04:41:20.718Z,101428.75
2023-08-19T04:43:48.934Z,101446.00
2023-08-19T04:46:17.457Z,101445.16
2023-08-19T04:48:44.747Z,101432.13
2023-08-19T04:51:12.069Z,101444.22
2023-08-19T04:53:39.307Z,101434.63
2023-08-19T04:56:08.045Z,101440.78
2023-08-19T04:58:36.249Z,101450.28
2023-08-19T05:01:04.245Z,101445.06
2023-08-19T05:03:33.453Z,101439.00
2023-08-19T05:06:00.549Z,101445.88
2023-08-19T05:08:38.401Z,101442.34
2023-08-19T05:11:05.658Z,101441.44
2023-08-19T05:13:33.967Z,101456.19
2023-08-19T05:16:01.211Z,101457.00
2023-08-19T05:18:28.799Z,101458.72
2023-08-19T05:20:55.884Z,101456.16
2023-08-19T05:23:24.928Z,101467.50
2023-08-19T05:25:52.563Z,101469.25
2023-08-19T05:28:20.099Z,101470.16
2023-08-19T05:30:47.323Z,101482.34
2023-08-19T05:33:14.354Z,101484.09
2023-08-19T05:35:41.494Z,101492.84
2023-08-19T05:38:08.690Z,101494.63
2023-08-19T05:40:35.793Z,101492.91
2023-08-19T05:43:02.921Z,101505.88
2023-08-19T05:45:30.176Z,101501.50
2023-08-19T05:47:57.401Z,101507.56
2023-08-19T05:50:24.674Z,101504.03
2023-08-19T05:52:54.817Z,101516.13
2023-08-19T05:55:21.871Z,101515.16
2023-08-19T05:57:48.950Z,101513.38
2023-08-19T06:00:16.267Z,101517.50
2023-08-19T06:02:43.615Z,101518.25
2023-08-19T06:05:11.136Z,101512.94
2023-08-19T06:07:38.758Z,101512.72
2023-08-19T06:10:06.614Z,101516.88
2023-08-19T06:12:33.619Z,101518.47
2023-08-19T06:15:00.917Z,101524.31
2023-08-19T06:17:28.286Z,101524.97
2023-08-19T06:19:55.486Z,101520.47
2023-08-19T06:22:22.627Z,101520.34
2023-08-19T06:24:49.848Z,101514.94
2023-08-19T06:27:17.019Z,101513.09
2023-08-19T06:29:44.975Z,101519.00
2023-08-19T06:32:13.691Z,101524.94
2023-08-19T06:34:41.688Z,101527.41
2023-08-19T06:37:12.521Z,101528.13
2023-08-19T06:39:43.289Z,101522.69
2023-08-19T06:42:11.855Z,101527.69
2023-08-19T06:44:39.883Z,101524.13
2023-08-19T06:47:10.816Z,101527.41
2023-08-19T06:49:39.224Z,101516.78
2023-08-19T06:52:07.957Z,101513.16
2023-08-19T06:54:35.443Z,101520.81
2023-08-19T06:57:13.666Z,101500.84
2023-08-19T06:59:45.739Z,101511.88
2023-08-19T07:02:14.273Z,101509.00
2023-08-19T07:04:46.680Z,101508.72
2023-08-19T07:07:16.024Z,101498.16
2023-08-19T07:09:43.672Z,101499.88
2023-08-19T07:12:11.709Z,101501.41
2023-08-19T07:14:40.853Z,101505.63
2023-08-19T07:17:09.304Z,101502.03
2023-08-19T07:19:40.790Z,101505.06
2023-08-19T07:22:09.370Z,101498.03
2023-08-19T07:24:36.712Z,101517.81
2023-08-19T07:27:07.202Z,101496.81
2023-08-19T07:29:36.472Z,101525.19
2023-08-19T07:32:04.418Z,101504.16
2023-08-19T07:34:34.739Z,101511.03
2023-08-19T07:37:02.511Z,101517.69
2023-08-19T07:39:29.766Z,101529.88
2023-08-19T07:41:56.941Z,101513.34
2023-08-19T07:44:24.278Z,101518.38
2023-08-19T07:46:51.786Z,101531.25
2023-08-19T07:49:18.927Z,101531.13
2023-08-19T07:51:46.658Z,101539.75
2023-08-19T07:54:13.890Z,101537.94
2023-08-19T07:56:40.969Z,101539.47
2023-08-19T07:59:08.153Z,101538.03
2023-08-19T08:01:36.783Z,101542.34
2023-08-19T08:04:04.449Z,101544.78
2023-08-19T08:06:31.787Z,101537.56
2023-08-19T08:08:59.116Z,101544.41
2023-08-19T08:11:28.957Z,101532.75
2023-08-19T08:13:56.036Z,101539.34
2023-08-19T08:16:23.366Z,101545.06
2023-08-19T08:18:50.517Z,101540.50
2023-08-19T08:21:19.731Z,101544.88
2023-08-19T08:23:48.316Z,101544.03
2023-08-19T08:26:15.381Z,101537.72
2023-08-19T08:28:42.878Z,101543.53
2023-08-19T08:31:10.397Z,101538.19
2023-08-19T08:33:37.601Z,101545.00
2023-08-19T08:36:05.028Z,101535.88
2023-08-19T08:38:32.513Z,101538.22
2023-08-19T08:41:05.285Z,101539.00
2023-08-19T08:43:34.511Z,101535.88
2023-08-19T08:46:02.019Z,101532.53
2023-08-19T08:48:32.731Z,101529.59
2023-08-19T08:51:00.440Z,101532.84
2023-08-19T08:53:31.885Z,101528.56
2023-08-19T08:56:00.360Z,101528.31
2023-08-19T08:58:27.698Z,101519.28
2023-08-19T09:00:55.272Z,101519.16
2023-08-19T09:03:26.566Z,101523.41
2023-08-19T09:05:58.895Z,101528.59
2023-08-19T09:08:35.230Z,101525.84
2023-08-19T09:11:04.037Z,101518.50
2023-08-19T09:13:32.145Z,101526.94
2023-08-19T09:15:59.521Z,101522.47
2023-08-19T09:18:27.727Z,101518.06
2023-08-19T09:20:54.916Z,101527.72
2023-08-19T09:23:22.239Z,101530.97
2023-08-19T09:25:49.508Z,101524.69
2023-08-19T09:28:19.855Z,101526.97
2023-08-19T09:30:47.067Z,101523.13
2023-08-19T09:33:24.113Z,101532.56
2023-08-19T09:35:59.839Z,101524.59
2023-08-19T09:38:27.751Z,101519.94
2023-08-19T09:41:02.451Z,101527.81
2023-08-19T09:43:29.824Z,101528.31
2023-08-19T09:45:58.904Z,101521.78
2023-08-19T09:48:26.697Z,101532.84
2023-08-19T09:50:54.398Z,101530.06
2023-08-19T09:53:21.523Z,101528.09
2023-08-19T09:55:50.419Z,101525.59
2023-08-19T09:58:18.846Z,101518.53
2023-08-19T10:00:48.028Z,101525.81
2023-08-19T10:03:17.448Z,101528.38
2023-08-19T10:05:50.230Z,101525.41
2023-08-19T10:08:27.331Z,101520.50
2023-08-19T10:10:54.494Z,101525.91
2023-08-19T10:13:23.500Z,101525.78
2023-08-19T10:15:51.397Z,101521.94
2023-08-19T10:18:28.063Z,101524.41
2023-08-19T10:21:00.346Z,101529.19
2023-08-19T10:23:28.492Z,101518.66
2023-08-19T10:25:56.176Z,101516.81
2023-08-19T10:28:25.996Z,101519.16
2023-08-19T10:31:08.361Z,101523.84
2023-08-19T10:33:44.051Z,101522.19
2023-08-19T10:36:19.162Z,101522.19
2023-08-19T10:38:56.569Z,101525.75
2023-08-19T10:41:25.748Z,101526.94
2023-08-19T10:44:04.221Z,101519.88
2023-08-19T10:46:39.272Z,101521.41
2023-08-19T10:49:12.296Z,101514.94
2023-08-19T10:51:55.545Z,101518.69
2023-08-19T10:54:40.201Z,101520.13
2023-08-19T10:57:14.775Z,101518.91
2023-08-19T10:59:44.302Z,101520.97
2023-08-19T11:02:12.353Z,101515.50
2023-08-19T11:04:49.121Z,101520.41
2023-08-19T11:07:17.662Z,101516.63
2023-08-19T11:09:46.925Z,101512.72
2023-08-19T11:12:18.302Z,101514.13
2023-08-19T11:14:48.830Z,101517.34
2023-08-19T11:17:17.155Z,101506.69
2023-08-19T11:19:44.801Z,101512.53
2023-08-19T11:22:16.232Z,101510.84
2023-08-19T11:24:43.683Z,101521.09
2023-08-19T11:27:12.002Z,101521.66
2023-08-19T11:29:39.857Z,101517.38
2023-08-19T11:32:07.678Z,101518.09
2023-08-19T11:34:35.206Z,101518.16
2023-08-19T11:37:06.617Z,101505.69
2023-08-19T11:39:34.550Z,101515.47
2023-08-19T11:42:03.857Z,101510.19
2023-08-19T11:44:33.324Z,101508.34
2023-08-19T11:47:00.656Z,101504.09
2023-08-19T11:49:31.404Z,101516.50
2023-08-19T11:51:59.880Z,101516.75
2023-08-19T11:54:28.658Z,101509.31
2023-08-19T11:56:57.417Z,101510.56
2023-08-19T11:59:35.163Z,101519.28
2023-08-19T12:02:07.244Z,101515.41
2023-08-19T12:04:35.455Z,101511.47
2023-08-19T12:07:10.486Z,101510.22
2023-08-19T12:09:39.124Z,101505.75
2023-08-19T12:12:11.334Z,101499.09
2023-08-19T12:14:40.470Z,101502.59
2023-08-19T12:17:08.993Z,101505.72
2023-08-19T12:19:36.807Z,101507.03
2023-08-19T12:22:05.519Z,101495.34
2023-08-19T12:24:33.123Z,101502.66
2023-08-19T12:27:00.365Z,101492.22
2023-08-19T12:29:28.299Z,101504.53
2023-08-19T12:31:55.566Z,101493.66
2023-08-19T12:34:22.790Z,101487.94
2023-08-19T12:36:50.058Z,101483.97
2023-08-19T12:39:18.156Z,101489.28
2023-08-19T12:41:45.492Z,101481.09
2023-08-19T12:44:14.656Z,101482.59
2023-08-19T12:46:44.073Z,101469.25
2023-08-19T12:49:11.462Z,101477.59
2023-08-19T12:51:39.098Z,101479.94
2023-08-19T12:54:06.684Z,101472.69
2023-08-19T12:56:33.858Z,101481.31
2023-08-19T12:59:01.305Z,101477.03
2023-08-19T13:01:28.492Z,101478.84
2023-08-19T13:03:56.248Z,101467.41
2023-08-19T13:06:23.550Z,101472.69
2023-08-19T13:08:50.684Z,101479.13
2023-08-19T13:11:17.953Z,101471.25
2023-08-19T13:13:45.660Z,101477.88
2023-08-19T13:16:13.001Z,101480.38
2023-08-19T13:18:40.356Z,101473.84
2023-08-19T13:21:07.580Z,101465.28
2023-08-19T13:23:34.901Z,101463.81
2023-08-19T13:26:02.265Z,101461.19
2023-08-19T13:28:29.559Z,101462.25
2023-08-19T13:30:57.730Z,101441.63
2023-08-19T13:33:25.269Z,101459.50
2023-08-19T13:35:52.404Z,101461.72
2023-08-19T13:38:19.468Z,101457.63
2023-08-19T13:40:46.949Z,101454.81
2023-08-19T13:43:14.842Z,101460.00
2023-08-19T13:45:42.050Z,101452.91
2023-08-19T13:48:15.296Z,101452.78
2023-08-19T13:50:44.464Z,101453.53
2023-08-19T13:53:11.610Z,101452.31
2023-08-19T13:55:38.949Z,101456.56
2023-08-19T13:58:06.457Z,101459.53
2023-08-19T14:00:33.610Z,101456.03
2023-08-19T14:03:01.131Z,101455.03
2023-08-19T14:05:29.894Z,101461.16
2023-08-19T14:07:57.013Z,101456.81
2023-08-19T14:10:24.338Z,101450.06
2023-08-19T14:12:51.643Z,101453.56
2023-08-19T14:15:18.961Z,101453.16
2023-08-19T14:17:46.665Z,101453.22
2023-08-19T14:20:13.952Z,101443.44
2023-08-19T14:22:41.709Z,101443.50
2023-08-19T14:25:11.620Z,101443.31
2023-08-19T14:27:40.114Z,101438.13
2023-08-19T14:30:07.838Z,101434.31
2023-08-19T14:32:35.340Z,101433.44
2023-08-19T14:35:02.621Z,101430.81
2023-08-19T14:37:31.611Z,101431.50
2023-08-19T14:40:00.748Z,101425.25
2023-08-19T14:42:29.608Z,101429.41
2023-08-19T14:44:56.708Z,101419.00
2023-08-19T14:47:23.951Z,101432.78
2023-08-19T14:49:51.739Z,101430.88
2023-08-19T14:52:20.304Z,101423.38
2023-08-19T14:54:47.979Z,101422.53
2023-08-19T14:57:15.718Z,101426.03
2023-08-19T14:59:42.799Z,101427.38
2023-08-19T15:02:09.912Z,101424.56
2023-08-19T15:04:37.020Z,101421.69
2023-08-19T15:07:05.202Z,101417.13
2023-08-19T15:09:32.297Z,101419.97
2023-08-19T15:11:59.371Z,101428.84
2023-08-19T15:14:26.522Z,101424.06
2023-08-19T15:16:55.319Z,101425.41
2023-08-19T15:19:22.718Z,101427.31
2023-08-19T15:21:50.075Z,101427.38
2023-08-19T15:24:17.393Z,101430.19
2023-08-19T15:26:44.678Z,101429.41
2023-08-19T15:29:11.811Z,101436.28
2023-08-19T15:31:38.990Z,101427.66
2023-08-19T15:34:06.233Z,101422.94
2023-08-19T15:36:33.394Z,101414.94
2023-08-19T15:39:00.529Z,101421.06
2023-08-19T15:41:30.112Z,101421.56
2023-08-19T15:43:58.820Z,101416.63
2023-08-19T15:46:26.068Z,101423.44
2023-08-19T15:48:53.476Z,101420.00
2023-08-19T15:51:20.934Z,101415.50
2023-08-19T15:53:48.422Z,101418.16
2023-08-19T15:56:15.583Z,101415.34
2023-08-19T15:58:42.713Z,101410.88
2023-08-19T16:01:10.195Z,101422.09
2023-08-19T16:03:37.618Z,101417.66
2023-08-19T16:06:05.081Z,101406.28
2023-08-19T16:08:32.942Z,101411.34
2023-08-19T16:11:07.538Z,101418.16
2023-08-19T16:13:35.525Z,101403.28
2023-08-19T16:16:13.363Z,101404.25
2023-08-19T16:18:45.204Z,101413.16
2023-08-19T16:21:13.019Z,101410.50
2023-08-19T16:23:40.214Z,101410.69
2023-08-19T16:26:07.253Z,101417.41
2023-08-19T16:28:34.396Z,101418.19
2023-08-19T16:31:05.595Z,101417.97
2023-08-19T16:33:36.224Z,101419.47
2023-08-19T16:36:04.579Z,101416.19
2023-08-19T16:38:32.253Z,101426.16
2023-08-19T16:40:59.289Z,101415.78
2023-08-19T16:43:26.747Z,101418.22
2023-08-19T16:45:58.569Z,101431.28
2023-08-19T16:48:27.313Z,101426.78
2023-08-19T16:50:54.960Z,101427.41
2023-08-19T16:53:23.060Z,101422.97
2023-08-19T16:56:02.108Z,101421.19
2023-08-19T16:58:30.185Z,101433.81
2023-08-19T17:01:01.946Z,101433.44
2023-08-19T17:03:30.105Z,101434.16
2023-08-19T17:06:04.188Z,101433.13
2023-08-19T17:08:33.289Z,101442.06
2023-08-19T17:11:01.059Z,101448.34
2023-08-19T17:13:31.198Z,101444.22
2023-08-19T17:15:59.866Z,101449.13
2023-08-19T17:18:28.198Z,101453.78
2023-08-19T17:20:58.367Z,101439.69
2023-08-19T17:23:27.355Z,101441.72
2023-08-19T17:25:54.492Z,101447.22
2023-08-19T17:28:21.874Z,101442.06
2023-08-19T17:30:49.125Z,101450.09
2023-08-19T17:33:17.071Z,101442.38
2023-08-19T17:35:44.305Z,101442.50
2023-08-19T17:38:13.504Z,101444.44
2023-08-19T17:40:43.169Z,101448.09
2023-08-19T17:43:10.308Z,101443.88
2023-08-19T17:45:37.346Z,101442.53
2023-08-19T17:48:04.907Z,101441.03
2023-08-19T17:50:32.319Z,101438.53
2023-08-19T17:52:59.422Z,101437.78
2023-08-19T17:55:26.570Z,101436.94
2023-08-19T17:57:54.483Z,101448.34
2023-08-19T18:00:21.782Z,101444.91
2023-08-19T18:02:49.141Z,101448.66
2023-08-19T18:05:16.476Z,101445.31
2023-08-19T18:07:43.629Z,101442.91
2023-08-19T18:10:10.991Z,101450.34
2023-08-19T18:12:38.211Z,101440.34
2023-08-19T18:15:05.972Z,101446.59
2023-08-19T18:17:33.505Z,101450.41
2023-08-19T18:20:00.837Z,101447.09
2023-08-19T18:22:28.308Z,101439.56
2023-08-19T18:24:55.448Z,101437.19
2023-08-19T18:27:22.512Z,101452.28
2023-08-19T18:29:49.654Z,101444.56
2023-08-19T18:32:16.821Z,101442.09
2023-08-19T18:34:44.003Z,101454.56
2023-08-19T18:37:11.293Z,101448.69
2023-08-19T18:39:38.528Z,101456.81
2023-08-19T18:42:06.099Z,101449.19
2023-08-19T18:44:33.491Z,101459.91
2023-08-19T18:47:00.590Z,101477.44
2023-08-19T18:49:27.829Z,101470.69
2023-08-19T18:51:54.909Z,101476.06
2023-08-19T18:54:23.031Z,101476.25
2023-08-19T18:56:50.439Z,101478.16
2023-08-19T18:59:17.465Z,101481.03
2023-08-19T19:01:44.708Z,101489.06
2023-08-19T19:04:12.568Z,101492.66
2023-08-19T19:06:39.687Z,101493.78
2023-08-19T19:09:06.976Z,101505.34
2023-08-19T19:11:34.240Z,101505.56
2023-08-19T19:14:01.440Z,101510.94
2023-08-19T19:16:28.562Z,101502.34
2023-08-19T19:18:55.712Z,101515.69
2023-08-19T19:21:22.972Z,101515.91
2023-08-19T19:23:50.030Z,101514.44
2023-08-19T19:26:17.073Z,101522.44
2023-08-19T19:28:44.420Z,101514.75
2023-08-19T19:31:11.614Z,101523.63
2023-08-19T19:33:38.921Z,101526.25
2023-08-19T19:36:06.286Z,101524.75
2023-08-19T19:38:33.404Z,101532.75
2023-08-19T19:41:00.508Z,101531.13
2023-08-19T19:43:27.573Z,101526.78
2023-08-19T19:45:54.862Z,101528.59
2023-08-19T19:48:21.943Z,101527.78
2023-08-19T19:50:49.251Z,101533.91
2023-08-19T19:53:16.540Z,101532.97
2023-08-19T19:55:43.694Z,101541.97
2023-08-19T19:58:10.734Z,101529.00
2023-08-19T20:00:37.923Z,101536.09
2023-08-19T20:03:05.362Z,101541.44
2023-08-19T20:05:32.796Z,101543.31
2023-08-19T20:08:00.072Z,101545.97
2023-08-19T20:10:28.501Z,101546.09
2023-08-19T20:12:56.564Z,101548.91
2023-08-19T20:15:26.539Z,101547.31
2023-08-19T20:17:55.352Z,101548.28
2023-08-19T20:20:22.662Z,101547.53
2023-08-19T20:22:51.141Z,101546.22
2023-08-19T20:25:18.372Z,101549.72
2023-08-19T20:27:47.454Z,101552.34
2023-08-19T20:30:14.785Z,101548.84
2023-08-19T20:32:42.234Z,101549.75
2023-08-19T20:35:09.654Z,101552.38
2023-08-19T20:37:37.264Z,101554.09
2023-08-19T20:40:05.069Z,101550.72
2023-08-19T20:42:32.959Z,101552.53
2023-08-19T20:45:00.567Z,101558.13
2023-08-19T20:47:27.899Z,101560.28
2023-08-19T20:49:55.139Z,101568.31
2023-08-19T20:52:22.368Z,101564.72
2023-08-19T20:54:49.634Z,101567.41
2023-08-19T20:57:16.789Z,101569.13
2023-08-19T20:59:43.908Z,101567.53
2023-08-19T21:02:11.034Z,101573.94
2023-08-19T21:04:38.218Z,101567.84
2023-08-19T21:07:05.322Z,101568.78
2023-08-19T21:09:32.627Z,101565.22
2023-08-19T21:11:59.805Z,101567.88
2023-08-19T21:14:29.472Z,101566.94
2023-08-19T21:16:56.620Z,101568.69
2023-08-19T21:19:23.974Z,101568.69
2023-08-19T21:21:51.522Z,101569.81
2023-08-19T21:24:18.716Z,101572.47
2023-08-19T21:26:45.864Z,101565.97
2023-08-19T21:29:13.167Z,101581.00
2023-08-19T21:31:41.801Z,101579.53
2023-08-19T21:34:09.134Z,101571.84
2023-08-19T21:36:36.316Z,101581.41
2023-08-19T21:39:03.345Z,101578.88
2023-08-19T21:41:30.526Z,101573.75
2023-08-19T21:43:57.628Z,101568.50
2023-08-19T21:46:24.735Z,101570.94
2023-08-19T21:48:52.365Z,101569.06
2023-08-19T21:51:20.781Z,101576.81
2023-08-19T21:53:48.928Z,101576.66
2023-08-19T21:56:16.101Z,101574.97
2023-08-19T21:58:43.160Z,101578.34
2023-08-19T22:01:10.541Z,101578.34
2023-08-19T22:03:37.616Z,101584.41
2023-08-19T22:06:05.312Z,101581.91
2023-08-19T22:08:33.315Z,101584.06
2023-08-19T22:11:00.590Z,101581.69
2023-08-19T22:13:27.865Z,101586.94
2023-08-19T22:15:55.208Z,101589.53
2023-08-19T22:18:22.369Z,101597.28
2023-08-19T22:20:51.714Z,101601.75
2023-08-19T22:23:19.947Z,101599.03
2023-08-19T22:25:47.172Z,101603.41
2023-08-19T22:28:14.327Z,101596.31
2023-08-19T22:30:41.882Z,101599.94
2023-08-19T22:33:09.392Z,101602.06
2023-08-19T22:35:36.609Z,101607.63
2023-08-19T22:38:03.935Z,101603.31
2023-08-19T22:40:31.048Z,101610.16
2023-08-19T22:42:59.776Z,101601.44
2023-08-19T22:45:26.800Z,101604.25
2023-08-19T22:47:53.997Z,101605.13
2023-08-19T22:50:21.163Z,101605.06
2023-08-19T22:52:48.274Z,101602.31
2023-08-19T22:55:15.406Z,101604.00
2023-08-19T22:57:46.058Z,101600.50
2023-08-19T23:00:13.438Z,101600.44
2023-08-19T23:02:43.262Z,101601.28
2023-08-19T23:05:11.053Z,101607.38
2023-08-19T23:07:38.226Z,101613.47
2023-08-19T23:10:06.162Z,101609.16
2023-08-19T23:12:33.539Z,101611.84
2023-08-19T23:15:00.724Z,101611.94
2023-08-19T23:17:28.136Z,101604.97
2023-08-19T23:19:55.360Z,101603.25
2023-08-19T23:22:22.385Z,101610.41
2023-08-19T23:24:50.338Z,101607.88
2023-08-19T23:27:18.130Z,101605.16
2023-08-19T23:29:45.403Z,101600.94
2023-08-19T23:32:12.452Z,101606.25
2023-08-19T23:34:39.537Z,101607.03
2023-08-19T23:37:06.750Z,101604.41
2023-08-19T23:39:34.084Z,101603.56
2023-08-19T23:42:01.472Z,101600.03
2023-08-19T23:44:28.777Z,101603.69
2023-08-19T23:46:56.211Z,101594.06
2023-08-19T23:49:23.558Z,101591.63
2023-08-19T23:51:56.297Z,101590.00
2023-08-19T23:54:23.697Z,101595.25
2023-08-19T23:56:51.879Z,101589.94
2023-08-19T23:59:19.429Z,101596.94
